Culiacan International Airport
MMCL : now visible

Airfield :











YOU CAN JOIN US ON...

 
LOGIN :

Register | Disclaimer

   EN    FR    IT 

 









Legend :    VFR   Marginal VFR   IFR   Intensive IFR   Very Intensive IFR
Visi :
Ceiling :
>= 8 km
>= 3000ft
5 to 8 km
1000 to 3000 ft
1500m to 5 km
500 to 1000 ft
800 to 1500m
200 to 500 ft
< 800m
< 200 ft
Symbols :   Thunderstorms  Fog  Heavy snow  Heavy precipitations  Wind > 20 kt






- Airport Elevation : 108 ft
- IATA code : CUL


MMCL - Culiacan International

CURRENT METAR :
  • 070041Z 33010G20KT 10SM FEW035 SCT080 BKN120 OVC250 28/12 A2995 RMK 8/577 HZY

EXPIRED METARs :
  • 062346Z 33008G18KT 10SM FEW080 SCT120 OVC250 30/11 A2992 RMK SLP129 57004 940 8/077 HZY
  • 062247Z 31008G18KT 10SM FEW100 SCT140 OVC250 31/11 A2990 RMK 8/077 HZY
  • 062140Z 31008G18KT 10SM FEW100 SCT140 OVC250 31/11 A2990 RMK 8/077 HALO HZY

TAF TAF MMCL
Valid from the 06 at 18:00 until the 07 at 18:00 UTC


061613Z 0618/0718 28010KT P6SM SCT100 BKN200
TEMPO 0620/0624 29015KT
FM070400 01006KT P6SM BKN120 BKN200
FM071600 28010KT P6SM SCT100 BKN200



MET'MAP, your aeronautical weather chart ! - Copyright ORBIFLY December 2007 - Disclaimer

ORBIFLY MET'MAP TEAM :

Programming & Development : Alexandra Zaïnal
Concept & original design : Baudouin d'Aumeries
Assistance for programming : Marc-Olivier Méhu
Technical & hardware support : Manuel Goepfert

Contact : metmap@orbifly.com




SOURCES & CREDITS :

   NOAA       Earth
Advisory